createdAt,value
2019-05-03T00:01:41.961Z,12.50
2019-05-03T00:04:08.790Z,12.50
2019-05-03T00:06:35.647Z,12.60
2019-05-03T00:09:07.611Z,12.60
2019-05-03T00:11:34.522Z,12.60
2019-05-03T00:14:01.713Z,12.50
2019-05-03T00:16:48.582Z,12.50
2019-05-03T00:19:15.356Z,12.50
2019-05-03T00:21:42.224Z,12.50
2019-05-03T00:24:09.096Z,12.50
2019-05-03T00:26:35.810Z,12.60
2019-05-03T00:29:03.516Z,12.50
2019-05-03T00:31:31.900Z,12.60
2019-05-03T00:34:03.262Z,12.70
2019-05-03T00:36:34.688Z,12.70
2019-05-03T00:39:21.948Z,13.00
2019-05-03T00:41:49.739Z,12.90
2019-05-03T00:44:16.562Z,12.80
2019-05-03T00:46:45.225Z,12.70
2019-05-03T00:49:12.064Z,12.50
2019-05-03T00:51:38.722Z,12.60
2019-05-03T00:54:05.850Z,12.70
2019-05-03T00:56:32.637Z,12.70
2019-05-03T00:59:02.042Z,12.60
2019-05-03T01:01:28.358Z,12.50
2019-05-03T01:03:55.500Z,12.50
2019-05-03T01:06:22.416Z,12.50
2019-05-03T01:08:52.064Z,12.50
2019-05-03T01:11:18.810Z,12.50
2019-05-03T01:13:45.758Z,12.40
2019-05-03T01:16:14.376Z,12.50
2019-05-03T01:18:41.773Z,12.50
2019-05-03T01:21:08.822Z,12.60
2019-05-03T01:23:35.605Z,12.80
2019-05-03T01:26:02.589Z,12.80
2019-05-03T01:28:29.966Z,12.50
2019-05-03T01:30:57.103Z,12.50
2019-05-03T01:33:23.810Z,12.50
2019-05-03T01:35:51.880Z,12.50
2019-05-03T01:38:19.566Z,12.30
2019-05-03T01:40:46.566Z,12.30
2019-05-03T01:43:13.262Z,12.20
2019-05-03T01:45:39.944Z,12.30
2019-05-03T01:48:21.588Z,12.30
2019-05-03T01:51:11.801Z,12.40
2019-05-03T01:53:41.719Z,12.40
2019-05-03T01:56:08.478Z,12.40
2019-05-03T01:58:35.177Z,12.50
2019-05-03T02:01:04.234Z,12.60
2019-05-03T02:03:35.806Z,12.70
2019-05-03T02:06:02.816Z,12.60
2019-05-03T02:08:29.520Z,12.70
2019-05-03T02:10:58.262Z,12.70
2019-05-03T02:13:25.184Z,12.70
2019-05-03T02:15:52.901Z,12.70
2019-05-03T02:18:19.796Z,12.60
2019-05-03T02:20:46.678Z,12.60
2019-05-03T02:23:13.352Z,12.40
2019-05-03T02:25:41.852Z,12.40
2019-05-03T02:28:08.800Z,12.50
2019-05-03T02:30:35.470Z,12.60
2019-05-03T02:33:04.079Z,12.50
2019-05-03T02:35:33.178Z,12.30
2019-05-03T02:37:59.288Z,12.40
2019-05-03T02:40:25.975Z,12.40
2019-05-03T02:43:09.752Z,12.40
2019-05-03T02:45:56.933Z,12.40
2019-05-03T02:48:31.372Z,12.40
2019-05-03T02:50:58.125Z,12.20
2019-05-03T02:53:25.903Z,11.90
2019-05-03T02:55:55.919Z,11.80
2019-05-03T02:58:25.296Z,12.20
2019-05-03T03:01:02.339Z,12.20
2019-05-03T03:03:30.346Z,12.30
2019-05-03T03:05:59.872Z,12.20
2019-05-03T03:08:28.425Z,12.20
2019-05-03T03:11:06.265Z,12.10
2019-05-03T03:13:36.808Z,12.00
2019-05-03T03:16:07.095Z,12.00
2019-05-03T03:18:36.715Z,12.00
2019-05-03T03:21:10.167Z,11.80
2019-05-03T03:23:57.393Z,11.70
2019-05-03T03:26:37.396Z,11.80
2019-05-03T03:29:05.617Z,12.10
2019-05-03T03:31:48.710Z,12.20
2019-05-03T03:34:19.425Z,12.10
2019-05-03T03:37:00.729Z,12.00
2019-05-03T03:39:25.690Z,12.00
2019-05-03T03:41:52.526Z,11.90
2019-05-03T03:44:20.206Z,11.90
2019-05-03T03:46:50.608Z,11.90
2019-05-03T03:49:18.995Z,12.00
2019-05-03T03:51:52.136Z,12.10
2019-05-03T03:54:21.263Z,12.00
2019-05-03T03:57:03.253Z,12.10
2019-05-03T03:59:26.705Z,12.10
2019-05-03T04:01:55.122Z,12.10
2019-05-03T04:04:25.722Z,12.00
2019-05-03T04:06:51.965Z,12.00
2019-05-03T04:09:19.147Z,12.10
2019-05-03T04:11:46.521Z,12.20
2019-05-03T04:14:16.141Z,12.20
2019-05-03T04:17:01.299Z,12.30
2019-05-03T04:19:32.485Z,12.20
2019-05-03T04:22:05.866Z,12.10
2019-05-03T04:24:35.191Z,12.30
2019-05-03T04:27:17.966Z,12.30
2019-05-03T04:29:42.207Z,12.30
2019-05-03T04:35:05.411Z,12.30
2019-05-03T04:37:36.696Z,12.30
2019-05-03T04:40:07.571Z,12.00
2019-05-03T04:42:36.595Z,12.00
2019-05-03T04:45:08.868Z,12.10
2019-05-03T04:47:37.394Z,12.10
2019-05-03T04:50:07.241Z,11.90
2019-05-03T04:52:36.257Z,11.90
2019-05-03T04:55:06.851Z,11.90
2019-05-03T04:57:42.151Z,11.90
2019-05-03T05:00:11.771Z,12.00
2019-05-03T05:02:40.164Z,12.00
2019-05-03T05:05:08.580Z,12.20
2019-05-03T05:07:36.765Z,12.10
2019-05-03T05:10:07.481Z,12.10
2019-05-03T05:12:36.585Z,12.10
2019-05-03T05:15:06.542Z,12.10
2019-05-03T05:17:42.186Z,12.10
2019-05-03T05:20:14.407Z,12.10
2019-05-03T05:22:45.436Z,12.20
2019-05-03T05:25:18.616Z,12.50
2019-05-03T05:28:00.806Z,12.60
2019-05-03T05:30:35.308Z,12.50
2019-05-03T05:33:10.540Z,12.70
2019-05-03T05:35:38.834Z,12.40
2019-05-03T05:38:06.182Z,12.30
2019-05-03T05:40:34.760Z,12.30
2019-05-03T05:43:01.386Z,12.30
2019-05-03T05:45:27.925Z,12.40
2019-05-03T05:47:56.494Z,12.60
2019-05-03T05:50:25.446Z,12.70
2019-05-03T05:52:52.284Z,12.50
2019-05-03T05:55:25.254Z,12.60
2019-05-03T05:58:02.869Z,12.40
2019-05-03T06:00:25.805Z,12.40
2019-05-03T06:02:52.525Z,12.40
2019-05-03T06:05:19.240Z,12.50
2019-05-03T06:08:00.178Z,12.60
2019-05-03T06:10:45.131Z,12.50
2019-05-03T06:13:15.223Z,12.70
2019-05-03T06:15:55.939Z,12.70
2019-05-03T06:18:36.568Z,12.80
2019-05-03T06:21:15.435Z,13.00
2019-05-03T06:23:45.128Z,13.10
2019-05-03T06:26:31.000Z,13.00
2019-05-03T06:28:57.619Z,13.10
2019-05-03T06:31:26.502Z,13.10
2019-05-03T06:33:55.237Z,13.10
2019-05-03T06:36:24.373Z,13.30
2019-05-03T06:38:51.257Z,13.00
2019-05-03T06:41:17.903Z,13.20
2019-05-03T06:43:48.739Z,13.20
2019-05-03T06:46:18.156Z,13.20
2019-05-03T06:48:44.390Z,13.30
2019-05-03T06:51:17.218Z,13.20
2019-05-03T06:53:41.935Z,13.00
2019-05-03T06:56:09.921Z,13.00
2019-05-03T06:58:36.718Z,13.00
2019-05-03T07:01:05.413Z,12.80
2019-05-03T07:03:35.400Z,13.10
2019-05-03T07:06:32.611Z,13.30
2019-05-03T07:09:00.959Z,13.20
2019-05-03T07:11:29.406Z,12.80
2019-05-03T07:13:56.146Z,12.90
2019-05-03T07:16:25.147Z,13.00
2019-05-03T07:18:51.811Z,13.00
2019-05-03T07:21:18.508Z,13.00
2019-05-03T07:23:45.235Z,13.00
2019-05-03T07:26:12.069Z,13.00
2019-05-03T07:28:46.923Z,13.00
2019-05-03T07:31:07.270Z,13.10
2019-05-03T07:33:35.165Z,13.50
2019-05-03T07:36:02.711Z,13.50
2019-05-03T07:38:29.328Z,13.30
2019-05-03T07:40:56.175Z,13.10
2019-05-03T07:43:24.511Z,13.40
2019-05-03T07:45:51.496Z,13.60
2019-05-03T07:48:21.192Z,13.90
2019-05-03T07:50:47.845Z,14.10
2019-05-03T07:53:15.095Z,14.00
2019-05-03T07:55:49.559Z,14.20
2019-05-03T07:58:18.180Z,14.40
2019-05-03T08:00:44.902Z,14.10
2019-05-03T08:03:11.583Z,14.00
2019-05-03T08:05:38.447Z,14.20
2019-05-03T08:08:20.491Z,14.50
2019-05-03T08:10:47.817Z,14.30
2019-05-03T08:13:15.549Z,14.20
2019-05-03T08:15:46.559Z,14.00
2019-05-03T08:18:18.189Z,13.90
2019-05-03T08:20:46.670Z,14.20
2019-05-03T08:23:26.374Z,14.20
2019-05-03T08:25:51.019Z,14.20
2019-05-03T08:28:18.623Z,14.30
2019-05-03T08:30:54.271Z,14.50
2019-05-03T08:33:25.291Z,14.70
2019-05-03T08:35:53.014Z,14.30
2019-05-03T08:38:25.825Z,14.00
2019-05-03T08:40:54.770Z,13.90
2019-05-03T08:43:37.149Z,13.80
2019-05-03T08:46:07.428Z,13.90
2019-05-03T08:48:39.499Z,14.20
2019-05-03T08:51:06.852Z,14.50
2019-05-03T08:53:35.854Z,14.60
2019-05-03T08:56:02.588Z,14.50
2019-05-03T08:58:34.641Z,14.30
2019-05-03T09:01:02.286Z,14.50
2019-05-03T09:03:29.023Z,14.50
2019-05-03T09:05:56.444Z,14.40
2019-05-03T09:08:24.922Z,14.20
2019-05-03T09:10:56.277Z,14.50
2019-05-03T09:13:24.965Z,14.70
2019-05-03T09:15:55.272Z,14.70
2019-05-03T09:18:22.894Z,14.70
2019-05-03T09:20:49.589Z,14.50
2019-05-03T09:23:16.385Z,14.10
2019-05-03T09:25:45.672Z,14.00
2019-05-03T09:28:11.983Z,14.20
2019-05-03T09:30:38.806Z,14.30
2019-05-03T09:33:08.831Z,14.30
2019-05-03T09:35:36.074Z,14.30
2019-05-03T09:38:05.705Z,14.00
2019-05-03T09:40:35.040Z,14.00
2019-05-03T09:43:01.567Z,14.00
2019-05-03T09:45:28.433Z,14.20
2019-05-03T09:47:57.739Z,14.20
2019-05-03T09:50:24.683Z,14.10
2019-05-03T09:52:51.700Z,14.20
2019-05-03T09:55:27.431Z,14.40
2019-05-03T09:57:55.516Z,14.70
2019-05-03T10:00:25.384Z,14.60
2019-05-03T10:02:51.983Z,14.20
2019-05-03T10:05:20.324Z,14.50
2019-05-03T10:07:48.371Z,14.30
2019-05-03T10:10:17.891Z,14.20
2019-05-03T10:12:47.509Z,14.30
2019-05-03T10:15:37.589Z,14.40
2019-05-03T10:18:11.139Z,14.40
2019-05-03T10:20:40.635Z,14.60
2019-05-03T10:23:27.764Z,15.00
2019-05-03T10:25:55.198Z,15.20
2019-05-03T10:28:21.979Z,15.00
2019-05-03T10:30:48.688Z,15.00
2019-05-03T10:33:20.164Z,15.10
2019-05-03T10:35:46.876Z,15.30
2019-05-03T10:38:15.135Z,15.40
2019-05-03T10:40:58.459Z,15.30
2019-05-03T10:43:25.322Z,15.10
2019-05-03T10:45:51.970Z,15.10
2019-05-03T10:48:21.596Z,15.00
2019-05-03T10:50:50.926Z,14.80
2019-05-03T10:53:18.878Z,14.80
2019-05-03T10:55:56.308Z,15.10
2019-05-03T10:58:24.945Z,15.40
2019-05-03T11:00:54.206Z,15.70
2019-05-03T11:03:21.795Z,15.80
2019-05-03T11:05:49.011Z,15.70
2019-05-03T11:08:17.680Z,15.60
2019-05-03T11:10:44.608Z,15.60
2019-05-03T11:13:11.359Z,15.60
2019-05-03T11:15:38.159Z,15.60
2019-05-03T11:18:06.127Z,15.30
2019-05-03T11:20:36.696Z,15.00
2019-05-03T11:23:05.861Z,14.80
2019-05-03T11:25:34.429Z,15.00
2019-05-03T11:28:04.854Z,15.30
2019-05-03T11:30:32.782Z,15.30
2019-05-03T11:33:01.318Z,15.40
2019-05-03T11:35:35.842Z,15.40
2019-05-03T11:38:07.520Z,15.60
2019-05-03T11:40:35.473Z,15.40
2019-05-03T11:43:04.623Z,15.10
2019-05-03T11:45:44.942Z,15.10
2019-05-03T11:48:15.580Z,15.50
2019-05-03T11:50:42.543Z,15.80
2019-05-03T11:53:09.238Z,16.30
2019-05-03T11:55:37.904Z,16.00
2019-05-03T11:58:08.689Z,15.60
2019-05-03T12:00:37.250Z,15.40
2019-05-03T12:03:06.055Z,15.90
2019-05-03T12:05:34.604Z,15.90
2019-05-03T12:08:01.370Z,15.60
2019-05-03T12:10:48.190Z,15.40
2019-05-03T12:13:00.492Z,15.50
2019-05-03T12:15:27.203Z,15.50
2019-05-03T12:17:59.398Z,15.40
2019-05-03T12:20:28.671Z,15.40
2019-05-03T12:22:55.289Z,15.30
2019-05-03T12:25:23.507Z,15.30
2019-05-03T12:27:51.171Z,15.30
2019-05-03T12:30:18.086Z,15.50
2019-05-03T12:32:45.984Z,15.50
2019-05-03T12:35:15.156Z,15.60
2019-05-03T12:37:41.288Z,15.30
2019-05-03T12:40:10.036Z,14.90
2019-05-03T12:42:36.696Z,14.60
2019-05-03T12:45:05.458Z,14.40
2019-05-03T12:47:32.120Z,14.30
2019-05-03T12:49:58.660Z,14.10
2019-05-03T12:52:26.777Z,14.20
2019-05-03T12:54:55.184Z,14.40
2019-05-03T12:57:24.823Z,14.40
2019-05-03T13:00:05.605Z,14.60
2019-05-03T13:02:40.494Z,14.70
2019-05-03T13:05:07.640Z,14.60
2019-05-03T13:07:36.280Z,14.40
2019-05-03T13:10:05.363Z,14.20
2019-05-03T13:12:34.795Z,14.40
2019-05-03T13:15:05.779Z,14.50
2019-05-03T13:17:35.835Z,14.60
2019-05-03T13:20:07.261Z,15.10
2019-05-03T13:22:35.050Z,15.40
2019-05-03T13:25:05.096Z,15.60
2019-05-03T13:27:31.815Z,15.70
2019-05-03T13:30:01.118Z,15.90
2019-05-03T13:32:28.439Z,16.10
2019-05-03T13:34:55.409Z,16.10
2019-05-03T13:37:22.019Z,16.10
2019-05-03T13:39:48.668Z,16.20
2019-05-03T13:42:15.285Z,16.10
2019-05-03T13:44:42.041Z,16.20
2019-05-03T13:47:08.744Z,16.00
2019-05-03T13:49:35.541Z,16.00
2019-05-03T13:52:02.408Z,16.10
2019-05-03T13:54:29.341Z,16.10
2019-05-03T13:56:56.135Z,16.00
2019-05-03T13:59:24.631Z,15.90
2019-05-03T14:01:54.403Z,15.40
2019-05-03T14:04:21.045Z,15.30
2019-05-03T14:06:47.650Z,15.30
2019-05-03T14:09:14.692Z,15.50
2019-05-03T14:11:41.470Z,15.80
2019-05-03T14:14:08.189Z,16.00
2019-05-03T14:16:34.814Z,15.80
2019-05-03T14:19:05.159Z,15.70
2019-05-03T14:21:36.418Z,15.90
2019-05-03T14:24:09.876Z,15.60
2019-05-03T14:26:39.598Z,15.10
2019-05-03T14:29:07.906Z,15.20
2019-05-03T14:31:37.629Z,15.10
2019-05-03T14:34:09.161Z,15.10
2019-05-03T14:36:40.290Z,15.10
2019-05-03T14:39:10.004Z,15.20
2019-05-03T14:41:37.101Z,15.20
2019-05-03T14:44:05.003Z,15.30
2019-05-03T14:46:33.253Z,15.60
2019-05-03T14:49:00.378Z,15.90
2019-05-03T14:51:27.010Z,16.00
2019-05-03T14:53:54.274Z,16.00
2019-05-03T14:56:25.381Z,16.10
2019-05-03T14:58:55.927Z,15.70
2019-05-03T15:01:42.587Z,15.40
2019-05-03T15:04:09.302Z,15.80
2019-05-03T15:06:43.243Z,15.60
2019-05-03T15:09:10.248Z,15.40
2019-05-03T15:11:36.895Z,15.40
2019-05-03T15:14:05.507Z,15.40
2019-05-03T15:16:34.279Z,15.40
2019-05-03T15:19:00.780Z,15.30
2019-05-03T15:21:27.413Z,15.20
2019-05-03T15:23:54.881Z,15.10
2019-05-03T15:26:21.657Z,15.10
2019-05-03T15:28:48.280Z,15.10
2019-05-03T15:31:15.016Z,15.10
2019-05-03T15:33:41.851Z,14.90
2019-05-03T15:36:11.559Z,15.00
2019-05-03T15:38:38.301Z,14.90
2019-05-03T15:41:05.555Z,14.90
2019-05-03T15:43:35.221Z,15.00
2019-05-03T15:46:20.836Z,15.10
2019-05-03T15:48:52.166Z,15.20
2019-05-03T15:51:18.934Z,15.30
2019-05-03T15:53:45.903Z,15.10
2019-05-03T15:56:14.517Z,15.20
2019-05-03T15:58:42.163Z,15.50
2019-05-03T16:01:09.787Z,15.40
2019-05-03T16:03:36.439Z,15.30
2019-05-03T16:06:04.925Z,15.20
2019-05-03T16:08:32.233Z,15.20
2019-05-03T16:10:59.123Z,15.40
2019-05-03T16:13:26.217Z,15.50
2019-05-03T16:15:55.032Z,15.80
2019-05-03T16:18:21.536Z,15.50
2019-05-03T16:20:48.207Z,15.30
2019-05-03T16:23:15.386Z,15.20
2019-05-03T16:25:42.413Z,15.30
2019-05-03T16:28:15.248Z,15.20
2019-05-03T16:30:45.458Z,15.20
2019-05-03T16:33:26.217Z,15.20
2019-05-03T16:35:42.087Z,15.40
2019-05-03T16:38:08.835Z,15.80
2019-05-03T16:40:35.749Z,15.90
2019-05-03T16:43:02.885Z,15.50
2019-05-03T16:45:30.002Z,15.30
2019-05-03T16:47:56.611Z,15.20
2019-05-03T16:50:25.132Z,15.10
2019-05-03T16:52:51.789Z,14.80
2019-05-03T16:55:18.454Z,14.80
2019-05-03T16:57:45.197Z,15.10
2019-05-03T17:00:15.331Z,15.20
2019-05-03T17:02:41.986Z,15.40
2019-05-03T17:05:22.571Z,15.40
2019-05-03T17:08:00.367Z,15.20
2019-05-03T17:10:32.179Z,15.20
2019-05-03T17:12:59.042Z,14.90
2019-05-03T17:15:25.744Z,14.70
2019-05-03T17:17:52.388Z,14.50
2019-05-03T17:20:19.016Z,14.80
2019-05-03T17:22:45.825Z,15.20
2019-05-03T17:25:15.011Z,15.10
2019-05-03T17:27:42.003Z,15.00
2019-05-03T17:30:09.477Z,15.00
2019-05-03T17:32:36.400Z,14.90
2019-05-03T17:35:06.230Z,14.90
2019-05-03T17:37:34.691Z,15.10
2019-05-03T17:40:09.826Z,15.10
2019-05-03T17:42:57.222Z,14.90
2019-05-03T17:45:32.174Z,15.00
2019-05-03T17:48:04.485Z,14.90
2019-05-03T17:50:34.812Z,14.90
2019-05-03T17:53:25.384Z,14.60
2019-05-03T17:56:05.667Z,14.60
2019-05-03T17:58:46.446Z,14.80
2019-05-03T18:01:30.054Z,14.50
2019-05-03T18:04:06.695Z,14.30
2019-05-03T18:06:29.115Z,14.30
2019-05-03T18:09:14.867Z,14.30
2019-05-03T18:11:45.093Z,14.30
2019-05-03T18:14:11.848Z,14.40
2019-05-03T18:16:38.575Z,14.20
2019-05-03T18:19:07.904Z,14.50
2019-05-03T18:21:34.710Z,14.40
2019-05-03T18:24:01.602Z,14.30
2019-05-03T18:26:28.233Z,14.20
2019-05-03T18:28:55.434Z,14.20
2019-05-03T18:31:25.037Z,14.20
2019-05-03T18:33:54.712Z,14.20
2019-05-03T18:36:21.557Z,14.50
2019-05-03T18:38:48.303Z,14.60
2019-05-03T18:41:16.026Z,14.60
2019-05-03T18:43:54.487Z,14.50
2019-05-03T18:46:41.645Z,14.40
2019-05-03T18:49:08.649Z,14.40
2019-05-03T18:51:35.499Z,14.40
2019-05-03T18:54:04.796Z,14.20
2019-05-03T18:56:31.330Z,14.20
2019-05-03T18:58:58.168Z,14.40
2019-05-03T19:01:25.308Z,14.30
2019-05-03T19:03:55.461Z,14.30
2019-05-03T19:06:22.490Z,14.20
2019-05-03T19:08:51.324Z,14.20
2019-05-03T19:11:24.590Z,14.20
2019-05-03T19:13:56.740Z,14.20
2019-05-03T19:16:25.836Z,14.20
2019-05-03T19:18:52.745Z,14.20
2019-05-03T19:21:19.391Z,14.10
2019-05-03T19:23:46.096Z,14.20
2019-05-03T19:26:14.431Z,14.20
2019-05-03T19:28:41.371Z,14.30
2019-05-03T19:31:08.318Z,14.30
2019-05-03T19:33:37.228Z,14.20
2019-05-03T19:36:18.216Z,14.20
2019-05-03T19:38:44.981Z,14.10
2019-05-03T19:41:11.711Z,14.00
2019-05-03T19:43:38.555Z,13.90
2019-05-03T19:46:07.364Z,13.80
2019-05-03T19:48:35.587Z,13.80
2019-05-03T19:51:03.084Z,13.70
2019-05-03T19:53:31.916Z,13.70
2019-05-03T19:55:58.633Z,13.60
2019-05-03T19:58:25.448Z,13.60
2019-05-03T20:00:59.986Z,13.60
2019-05-03T20:03:35.235Z,13.50
2019-05-03T20:06:04.911Z,13.60
2019-05-03T20:08:35.209Z,13.50
2019-05-03T20:11:14.633Z,13.40
2019-05-03T20:13:45.121Z,13.40
2019-05-03T20:16:15.100Z,13.30
2019-05-03T20:18:41.850Z,13.40
2019-05-03T20:21:08.582Z,13.50
2019-05-03T20:23:35.346Z,13.50
2019-05-03T20:26:02.371Z,13.60
2019-05-03T20:28:29.697Z,13.70
2019-05-03T20:30:56.942Z,13.60
2019-05-03T20:33:24.597Z,13.50
2019-05-03T20:35:53.791Z,13.50
2019-05-03T20:38:20.219Z,13.60
2019-05-03T20:40:48.038Z,13.60
2019-05-03T20:43:25.834Z,13.70
2019-05-03T20:45:54.898Z,13.60
2019-05-03T20:48:22.240Z,13.60
2019-05-03T20:50:49.080Z,13.60
2019-05-03T20:53:15.716Z,13.50
2019-05-03T20:55:45.097Z,13.50
2019-05-03T20:58:12.036Z,13.50
2019-05-03T21:00:38.844Z,13.50
2019-05-03T21:03:05.368Z,13.50
2019-05-03T21:05:34.628Z,13.50
2019-05-03T21:08:00.501Z,13.60
2019-05-03T21:10:33.540Z,13.60
2019-05-03T21:13:00.280Z,13.50
2019-05-03T21:15:35.483Z,13.50
2019-05-03T21:18:04.936Z,13.50
2019-05-03T21:20:36.278Z,13.60
2019-05-03T21:23:05.488Z,13.60
2019-05-03T21:26:02.181Z,13.60
2019-05-03T21:28:06.942Z,13.50
2019-05-03T21:30:35.240Z,13.40
2019-05-03T21:33:02.078Z,13.40
2019-05-03T21:35:40.809Z,13.40
2019-05-03T21:37:57.526Z,13.40
2019-05-03T21:40:24.477Z,13.40
2019-05-03T21:42:51.105Z,13.30
2019-05-03T21:45:19.638Z,13.20
2019-05-03T21:47:48.242Z,13.00
2019-05-03T21:50:17.296Z,12.70
2019-05-03T21:52:45.671Z,12.70
2019-05-03T21:55:14.361Z,12.70
2019-05-03T21:57:41.631Z,12.60
2019-05-03T22:00:10.340Z,12.60
2019-05-03T22:02:39.232Z,12.60
2019-05-03T22:05:06.720Z,12.60
2019-05-03T22:07:34.968Z,12.40
2019-05-03T22:10:02.448Z,12.40
2019-05-03T22:12:29.351Z,12.20
2019-05-03T22:15:07.683Z,12.20
2019-05-03T22:17:38.932Z,12.30
2019-05-03T22:20:16.918Z,12.30
2019-05-03T22:22:46.606Z,12.00
2019-05-03T22:25:15.173Z,11.70
2019-05-03T22:27:45.554Z,11.50
2019-05-03T22:30:12.624Z,10.90
2019-05-03T22:32:39.375Z,10.80
2019-05-03T22:35:07.250Z,10.90
2019-05-03T22:37:35.429Z,10.50
2019-05-03T22:40:05.352Z,10.20
2019-05-03T22:42:32.218Z,10.00
2019-05-03T22:45:00.025Z,10.00
2019-05-03T22:47:29.121Z,9.90
2019-05-03T22:49:56.273Z,10.00
2019-05-03T22:52:23.395Z,10.10
2019-05-03T22:54:50.695Z,10.20
2019-05-03T22:57:17.817Z,10.30
2019-05-03T22:59:45.039Z,10.10
2019-05-03T23:02:11.721Z,10.00
2019-05-03T23:04:38.922Z,9.90
2019-05-03T23:07:08.545Z,9.80
2019-05-03T23:09:35.384Z,9.90
2019-05-03T23:12:02.041Z,10.10
2019-05-03T23:14:29.108Z,10.20
2019-05-03T23:16:55.714Z,10.30
2019-05-03T23:19:22.396Z,10.00
2019-05-03T23:21:54.979Z,9.70
2019-05-03T23:24:21.848Z,9.50
2019-05-03T23:26:48.638Z,9.50
2019-05-03T23:29:15.896Z,9.50
2019-05-03T23:31:44.718Z,9.60
2019-05-03T23:34:11.246Z,9.30
2019-05-03T23:36:37.863Z,9.20
2019-05-03T23:39:05.134Z,9.20
2019-05-03T23:41:32.030Z,9.30
2019-05-03T23:43:58.881Z,9.30
2019-05-03T23:46:27.552Z,9.30
2019-05-03T23:48:54.179Z,9.10
2019-05-03T23:51:39.355Z,9.20
2019-05-03T23:54:06.492Z,9.10
2019-05-03T23:56:35.077Z,9.00
2019-05-03T23:59:01.932Z,9.10
